Thunder radar more information blitzortung!


Löydät sääaseman tiedot myös:

European Weather Network

Finland Weather Exchange

Weather Underground

AWEKAS



Weather Underground säähistoriasivu

Päivittäin yhteenveto Kesäkuu 19, 2017 Yksiköt:  Englantilaiset    Metriset   Molemmat
« Edellinen Päivä
Seuraava Päivä »
Päivittäin Viikoittain Kuukausittain Vuosittain Mukautettu
  Korkea: Matala: Keskiarvo:
Lämpötila: TemperatureC °F 10.1 °F 14.5 °F
Kastepiste: DewpointC °F 5.7 °F 7.2 °F
Kosteus: Humidity % 45 % 62 %
Tuulen nopeus: WindSpeedKMH mph 0.0 mph 4.1 mph
Tuulenpuuska: WindSpeedGustKMH mph - -
Tuuli:- - WNW
Ilmanpaine: PressurehPa in 1005.6 in -
Sade: 0.0 in    
Historical Graphs
 
 
Taulukkotiedot Kesäkuu 19, 2017
Aika Lämpötila Kastepiste Ilmanpaine Tuuli Tuulen nopeus Tuulenpuuska Kosteus Sademäärä (tunneittain)
TemperatureC °F DewpointC °F PressurehPa in Calm     Humidity % HourlyPrecipMM in
00:00 14.3 °F 8.3 °F 1007.0 in West 1.6 mph 12.9 mph 67 % 0.0 in
00:15 14.1 °F 8.5 °F 1007.0 in West 1.6 mph 6.4 mph 69 % 0.0 in
00:30 13.7 °F 8.3 °F 1007.0 in Calm   9.7 mph 70 % 0.0 in
00:45 13.3 °F 8.2 °F 1007.0 in West 1.6 mph 8.0 mph 71 % 0.0 in
01:00 12.9 °F 8.2 °F 1007.3 in Calm   6.4 mph 73 % 0.0 in
01:15 12.6 °F 8.1 °F 1007.3 in Calm   6.4 mph 74 % 0.0 in
01:30 12.4 °F 8.1 °F 1007.3 in WNW 1.6 mph 8.0 mph 75 % 0.0 in
01:45 12.3 °F 8.0 °F 1007.3 in SW 1.6 mph 8.0 mph 75 % 0.0 in
02:00 12.1 °F 7.8 °F 1007.7 in WNW 1.6 mph 11.3 mph 75 % 0.0 in
02:15 12.1 °F 7.8 °F 1007.7 in Calm   6.4 mph 75 % 0.0 in
02:30 11.7 °F 7.8 °F 1007.7 in Calm   3.2 mph 77 % 0.0 in
02:45 11.5 °F 7.6 °F 1007.7 in WNW 1.6 mph 6.4 mph 77 % 0.0 in
03:00 11.3 °F 7.6 °F 1007.7 in SW 1.6 mph 9.7 mph 78 % 0.0 in
03:15 11.2 °F 7.7 °F 1007.7 in WSW 1.6 mph 8.0 mph 79 % 0.0 in
03:30 11.0 °F 7.5 °F 1007.7 in Calm   1.6 mph 79 % 0.0 in
03:45 10.4 °F 7.3 °F 1007.7 in Calm   1.6 mph 81 % 0.0 in
04:00 10.1 °F 7.2 °F 1007.7 in Calm   4.8 mph 82 % 0.0 in
04:15 10.1 °F 7.1 °F 1007.7 in Calm   6.4 mph 82 % 0.0 in
04:30 10.2 °F 7.2 °F 1007.7 in Calm   9.7 mph 82 % 0.0 in
04:45 10.3 °F 7.3 °F 1007.7 in Calm   8.0 mph 82 % 0.0 in
05:00 10.8 °F 7.5 °F 1007.7 in WNW 3.2 mph 12.9 mph 80 % 0.0 in
05:15 11.1 °F 7.6 °F 1008.0 in WNW 1.6 mph 12.9 mph 79 % 0.0 in
05:30 11.0 °F 7.5 °F 1007.7 in West 1.6 mph 8.0 mph 79 % 0.0 in
05:45 11.1 °F 7.6 °F 1007.7 in Calm   6.4 mph 79 % 0.0 in
06:00 11.4 °F 7.7 °F 1007.7 in WNW 3.2 mph 9.7 mph 78 % 0.0 in
06:15 11.7 °F 7.8 °F 1007.7 in NW 3.2 mph 14.5 mph 77 % 0.0 in
06:30 11.9 °F 7.6 °F 1008.0 in NW 3.2 mph 11.3 mph 75 % 0.0 in
06:45 12.3 °F 8.0 °F 1008.0 in WNW 3.2 mph 12.9 mph 75 % 0.0 in
07:00 12.7 °F 7.7 °F 1008.0 in WNW 4.8 mph 14.5 mph 72 % 0.0 in
07:15 13.1 °F 7.9 °F 1008.0 in WNW 4.8 mph 14.5 mph 71 % 0.0 in
07:30 13.4 °F 8.0 °F 1008.0 in WNW 4.8 mph 14.5 mph 70 % 0.0 in
07:45 13.7 °F 8.1 °F 1008.0 in West 3.2 mph 14.5 mph 69 % 0.0 in
08:00 13.9 °F 7.9 °F 1007.7 in WNW 6.4 mph 16.1 mph 67 % 0.0 in
08:15 14.1 °F 7.8 °F 1007.7 in West 8.0 mph 25.7 mph 66 % 0.0 in
08:30 14.2 °F 7.7 °F 1007.7 in WNW 6.4 mph 22.5 mph 65 % 0.0 in
08:45 14.4 °F 7.7 °F 1007.7 in WNW 8.0 mph 19.3 mph 64 % 0.0 in
09:15 14.8 °F 7.8 °F 1007.7 in NW 8.0 mph 24.1 mph 63 % 0.0 in
09:30 14.7 °F 8.2 °F 1007.7 in NW 8.0 mph 16.1 mph 65 % 0.0 in
09:45 15.0 °F 8.0 °F 1007.7 in West 4.8 mph 14.5 mph 63 % 0.0 in
10:00 15.4 °F 8.4 °F 1007.7 in West 4.8 mph 12.9 mph 63 % 0.0 in
10:15 15.6 °F 8.1 °F 1007.7 in WNW 6.4 mph 20.9 mph 61 % 0.0 in
10:30 15.8 °F 8.5 °F 1007.7 in NW 6.4 mph 16.1 mph 62 % 0.0 in
10:45 15.7 °F 8.5 °F 1007.7 in West 6.4 mph 16.1 mph 62 % 0.0 in
11:00 15.4 °F 8.2 °F 1007.7 in NW 6.4 mph 17.7 mph 62 % 0.0 in
11:15 15.7 °F 8.0 °F 1007.7 in West 4.8 mph 17.7 mph 60 % 0.0 in
11:30 16.0 °F 8.0 °F 1007.7 in NW 8.0 mph 29.0 mph 59 % 0.0 in
11:45 16.3 °F 8.0 °F 1008.0 in WNW 6.4 mph 16.1 mph 58 % 0.0 in
12:00 15.8 °F 8.1 °F 1008.0 in WNW 4.8 mph 19.3 mph 60 % 0.0 in
12:15 16.1 °F 8.0 °F 1008.0 in WNW 8.0 mph 17.7 mph 59 % 0.0 in
12:30 15.8 °F 7.0 °F 1008.0 in NW 6.4 mph 17.7 mph 56 % 0.0 in
12:45 16.6 °F 7.3 °F 1008.0 in WNW 4.8 mph 17.7 mph 54 % 0.0 in
13:00 16.1 °F 6.5 °F 1008.4 in NW 8.0 mph 19.3 mph 53 % 0.0 in
13:15 16.1 °F 6.8 °F 1008.0 in NW 6.4 mph 16.1 mph 54 % 0.0 in
13:30 15.9 °F 6.4 °F 1008.4 in NW 8.0 mph 20.9 mph 53 % 0.0 in
13:45 16.4 °F 6.8 °F 1008.0 in NW 8.0 mph 20.9 mph 53 % 0.0 in
14:00 16.6 °F 7.0 °F 1008.4 in NW 6.4 mph 20.9 mph 53 % 0.0 in
14:15 16.9 °F 7.0 °F 1008.4 in NW 8.0 mph 20.9 mph 52 % 0.0 in
14:30 16.7 °F 7.4 °F 1008.4 in NW 8.0 mph 20.9 mph 54 % 0.0 in
14:45 16.3 °F 7.5 °F 1008.0 in WNW 6.4 mph 14.5 mph 56 % 0.0 in
15:00 17.2 °F 7.0 °F 1008.0 in NW 6.4 mph 14.5 mph 51 % 0.0 in
15:15 17.9 °F 6.7 °F 1008.0 in WNW 8.0 mph 20.9 mph 48 % 0.0 in
15:30 18.2 °F 6.7 °F 1008.0 in WNW 8.0 mph 29.0 mph 47 % 0.0 in
15:45 17.5 °F 6.1 °F 1008.0 in WNW 8.0 mph 22.5 mph 47 % 0.0 in
16:00 17.3 °F 6.5 °F 1008.0 in NW 8.0 mph 19.3 mph 49 % 0.0 in
16:15 16.8 °F 6.0 °F 1008.0 in NW 9.7 mph 20.9 mph 49 % 0.0 in
16:30 16.6 °F 6.1 °F 1008.0 in NW 8.0 mph 19.3 mph 50 % 0.0 in
17:00 17.0 °F 6.2 °F 1008.0 in NW 4.8 mph 17.7 mph 49 % 0.0 in
17:15 16.7 °F 5.9 °F 1007.7 in NW 8.0 mph 14.5 mph 49 % 0.0 in
17:30 17.1 °F 5.7 °F 1007.7 in NW 4.8 mph 14.5 mph 47 % 0.0 in
17:45 18.2 °F 6.4 °F 1007.7 in WNW 4.8 mph 12.9 mph 46 % 0.0 in
18:00 18.4 °F 6.3 °F 1007.7 in WNW 4.8 mph 12.9 mph 45 % 0.0 in
18:30 18.1 °F 6.0 °F 1007.3 in WNW 6.4 mph 16.1 mph 45 % 0.0 in
18:45 18.4 °F 6.2 °F 1007.3 in WNW 6.4 mph 24.1 mph 45 % 0.0 in
19:00 18.4 °F 6.2 °F 1007.3 in WNW 6.4 mph 27.4 mph 45 % 0.0 in
19:15 18.3 °F 6.2 °F 1007.3 in West 4.8 mph 16.1 mph 45 % 0.0 in
19:30 17.9 °F 6.1 °F 1007.3 in West 4.8 mph 16.1 mph 46 % 0.0 in
19:45 17.8 °F 6.7 °F 1007.3 in West 3.2 mph 12.9 mph 48 % 0.0 in
20:00 17.6 °F 6.1 °F 1007.3 in WSW 3.2 mph 16.1 mph 47 % 0.0 in
20:15 17.3 °F 6.5 °F 1007.0 in NW 6.4 mph 24.1 mph 49 % 0.0 in
20:30 16.9 °F 6.7 °F 1007.0 in West 3.2 mph 12.9 mph 51 % 0.0 in
20:45 16.8 °F 6.6 °F 1007.0 in West 4.8 mph 12.9 mph 51 % 0.0 in
21:00 16.4 °F 6.6 °F 1007.0 in West 1.6 mph 8.0 mph 52 % 0.0 in
21:15 16.1 °F 6.0 °F 1006.7 in WSW 3.2 mph 11.3 mph 51 % 0.0 in
21:30 15.9 °F 6.6 °F 1006.7 in Calm   12.9 mph 54 % 0.0 in
21:45 15.6 °F 7.1 °F 1006.3 in Calm   4.8 mph 57 % 0.0 in
22:00 15.3 °F 7.1 °F 1006.3 in SW 1.6 mph 6.4 mph 58 % 0.0 in
22:15 15.0 °F 7.0 °F 1006.3 in Calm   4.8 mph 59 % 0.0 in
22:30 14.5 °F 7.1 °F 1006.3 in SSW 1.6 mph 9.7 mph 61 % 0.0 in
22:45 14.1 °F 7.2 °F 1006.0 in SW 1.6 mph 9.7 mph 63 % 0.0 in
23:15 13.3 °F 7.5 °F 1006.0 in WSW 1.6 mph 6.4 mph 68 % 0.0 in
23:30 13.0 °F 7.7 °F 1005.6 in Calm   4.8 mph 70 % 0.0 in
23:45 12.7 °F 8.0 °F 1005.6 in Calm   4.8 mph 73 % 0.0 in
Esan sääasema
Terveisin Weather Underground - 2.75 mb

Alkuperäinen skripti  Jim McMurry - jmcmurry@mwt.net Sovitettu myös templatelle  Wim van der Kuil - Leuven-Template.eu

Laitteet joita käytämme:

Sääasema
Davis VP2

Sääasemaohjelma
Cumulus

Sääaseman tietokone
Asus EeePC

Palveluntarjoaja
Suncomet

Davis VP2

Cumulus

Asus EeePC

Suncomet